sensor_id;sensor_type;location;lat;lon;timestamp;P1;durP1;ratioP1;P2;durP2;ratioP2
291;SDS011;23311;48.776;9.162;2022-09-02T00:00:10;6.30;;;5.97;;
291;SDS011;23311;48.776;9.162;2022-09-02T00:02:39;6.30;;;5.90;;
291;SDS011;23311;48.776;9.162;2022-09-02T00:05:07;6.60;;;6.20;;
291;SDS011;23311;48.776;9.162;2022-09-02T00:07:35;6.80;;;6.40;;
291;SDS011;23311;48.776;9.162;2022-09-02T00:10:05;6.90;;;5.30;;
291;SDS011;23311;48.776;9.162;2022-09-02T00:12:34;6.40;;;6.00;;
291;SDS011;23311;48.776;9.162;2022-09-02T00:15:02;5.97;;;5.67;;
291;SDS011;23311;48.776;9.162;2022-09-02T00:17:31;6.20;;;5.73;;
291;SDS011;23311;48.776;9.162;2022-09-02T00:19:59;5.43;;;5.13;;
291;SDS011;23311;48.776;9.162;2022-09-02T00:22:28;5.17;;;4.90;;
291;SDS011;23311;48.776;9.162;2022-09-02T00:24:56;6.67;;;5.60;;
291;SDS011;23311;48.776;9.162;2022-09-02T00:27:25;5.40;;;5.10;;
291;SDS011;23311;48.776;9.162;2022-09-02T00:29:53;5.47;;;5.17;;
291;SDS011;23311;48.776;9.162;2022-09-02T00:32:21;5.37;;;5.07;;
291;SDS011;23311;48.776;9.162;2022-09-02T00:34:49;5.43;;;5.03;;
291;SDS011;23311;48.776;9.162;2022-09-02T00:37:17;5.67;;;5.37;;
291;SDS011;23311;48.776;9.162;2022-09-02T00:39:46;5.57;;;4.90;;
291;SDS011;23311;48.776;9.162;2022-09-02T00:42:14;5.70;;;5.40;;
291;SDS011;23311;48.776;9.162;2022-09-02T00:44:44;4.93;;;4.63;;
291;SDS011;23311;48.776;9.162;2022-09-02T00:47:12;5.53;;;5.23;;
291;SDS011;23311;48.776;9.162;2022-09-02T00:49:41;5.73;;;5.43;;
291;SDS011;23311;48.776;9.162;2022-09-02T00:52:13;5.40;;;5.10;;
291;SDS011;23311;48.776;9.162;2022-09-02T00:54:46;6.00;;;5.67;;
291;SDS011;23311;48.776;9.162;2022-09-02T00:57:18;5.90;;;5.33;;
291;SDS011;23311;48.776;9.162;2022-09-02T00:59:52;5.93;;;5.63;;
291;SDS011;23311;48.776;9.162;2022-09-02T01:02:27;6.10;;;5.10;;
291;SDS011;23311;48.776;9.162;2022-09-02T01:04:57;4.87;;;4.57;;
291;SDS011;23311;48.776;9.162;2022-09-02T01:07:27;5.33;;;5.03;;
291;SDS011;23311;48.776;9.162;2022-09-02T01:09:59;5.40;;;5.10;;
291;SDS011;23311;48.776;9.162;2022-09-02T01:12:29;5.17;;;4.87;;
291;SDS011;23311;48.776;9.162;2022-09-02T01:14:59;5.30;;;5.00;;
291;SDS011;23311;48.776;9.162;2022-09-02T01:17:28;5.40;;;5.10;;
291;SDS011;23311;48.776;9.162;2022-09-02T01:20:00;5.90;;;5.60;;
291;SDS011;23311;48.776;9.162;2022-09-02T01:22:32;5.70;;;5.40;;
291;SDS011;23311;48.776;9.162;2022-09-02T01:25:02;5.67;;;5.37;;
291;SDS011;23311;48.776;9.162;2022-09-02T01:27:32;6.10;;;5.80;;
291;SDS011;23311;48.776;9.162;2022-09-02T01:30:00;5.90;;;5.60;;
291;SDS011;23311;48.776;9.162;2022-09-02T01:32:28;6.63;;;6.23;;
291;SDS011;23311;48.776;9.162;2022-09-02T01:34:57;6.23;;;5.90;;
291;SDS011;23311;48.776;9.162;2022-09-02T01:37:25;7.43;;;7.03;;
291;SDS011;23311;48.776;9.162;2022-09-02T01:39:54;7.33;;;6.93;;
291;SDS011;23311;48.776;9.162;2022-09-02T01:42:23;7.40;;;7.00;;
291;SDS011;23311;48.776;9.162;2022-09-02T01:44:51;8.90;;;6.90;;
291;SDS011;23311;48.776;9.162;2022-09-02T01:47:21;6.97;;;6.57;;
291;SDS011;23311;48.776;9.162;2022-09-02T01:49:53;6.50;;;6.17;;
291;SDS011;23311;48.776;9.162;2022-09-02T01:52:22;6.67;;;6.27;;
291;SDS011;23311;48.776;9.162;2022-09-02T01:54:51;7.40;;;7.00;;
291;SDS011;23311;48.776;9.162;2022-09-02T01:57:20;6.90;;;6.50;;
291;SDS011;23311;48.776;9.162;2022-09-02T01:59:49;7.13;;;6.73;;
291;SDS011;23311;48.776;9.162;2022-09-02T02:02:18;6.50;;;6.10;;
291;SDS011;23311;48.776;9.162;2022-09-02T02:04:47;7.03;;;6.63;;
291;SDS011;23311;48.776;9.162;2022-09-02T02:07:17;7.57;;;6.73;;
291;SDS011;23311;48.776;9.162;2022-09-02T02:09:45;6.93;;;6.53;;
291;SDS011;23311;48.776;9.162;2022-09-02T02:12:14;9.57;;;6.90;;
291;SDS011;23311;48.776;9.162;2022-09-02T02:14:44;8.13;;;7.73;;
291;SDS011;23311;48.776;9.162;2022-09-02T02:17:12;7.57;;;7.00;;
291;SDS011;23311;48.776;9.162;2022-09-02T02:19:40;8.03;;;7.63;;
291;SDS011;23311;48.776;9.162;2022-09-02T02:22:09;7.73;;;7.33;;
291;SDS011;23311;48.776;9.162;2022-09-02T02:24:39;8.03;;;6.73;;
291;SDS011;23311;48.776;9.162;2022-09-02T02:27:07;7.37;;;6.97;;
291;SDS011;23311;48.776;9.162;2022-09-02T02:29:35;7.10;;;6.70;;
291;SDS011;23311;48.776;9.162;2022-09-02T02:32:04;6.17;;;5.87;;
291;SDS011;23311;48.776;9.162;2022-09-02T02:34:33;6.17;;;5.87;;
291;SDS011;23311;48.776;9.162;2022-09-02T02:37:01;6.87;;;6.47;;
291;SDS011;23311;48.776;9.162;2022-09-02T02:39:29;7.57;;;7.17;;
291;SDS011;23311;48.776;9.162;2022-09-02T02:41:57;8.00;;;6.60;;
291;SDS011;23311;48.776;9.162;2022-09-02T02:44:25;7.10;;;6.70;;
291;SDS011;23311;48.776;9.162;2022-09-02T02:46:54;6.90;;;6.50;;
291;SDS011;23311;48.776;9.162;2022-09-02T02:49:24;8.13;;;7.40;;
291;SDS011;23311;48.776;9.162;2022-09-02T02:51:53;7.57;;;7.00;;
291;SDS011;23311;48.776;9.162;2022-09-02T02:54:21;7.73;;;7.33;;
291;SDS011;23311;48.776;9.162;2022-09-02T02:56:56;7.17;;;6.70;;
291;SDS011;23311;48.776;9.162;2022-09-02T02:59:24;7.43;;;7.03;;
291;SDS011;23311;48.776;9.162;2022-09-02T03:01:54;7.50;;;7.10;;
291;SDS011;23311;48.776;9.162;2022-09-02T03:04:24;6.50;;;6.10;;
291;SDS011;23311;48.776;9.162;2022-09-02T03:06:52;6.00;;;5.77;;
291;SDS011;23311;48.776;9.162;2022-09-02T03:09:20;6.00;;;5.70;;
291;SDS011;23311;48.776;9.162;2022-09-02T03:11:48;5.83;;;5.53;;
291;SDS011;23311;48.776;9.162;2022-09-02T03:14:16;6.47;;;6.07;;
291;SDS011;23311;48.776;9.162;2022-09-02T03:16:45;6.23;;;5.90;;
291;SDS011;23311;48.776;9.162;2022-09-02T03:19:13;5.53;;;5.23;;
291;SDS011;23311;48.776;9.162;2022-09-02T03:21:42;5.17;;;4.87;;
291;SDS011;23311;48.776;9.162;2022-09-02T03:24:10;5.30;;;5.00;;
291;SDS011;23311;48.776;9.162;2022-09-02T03:26:39;5.43;;;5.13;;
291;SDS011;23311;48.776;9.162;2022-09-02T03:29:08;5.97;;;4.90;;
291;SDS011;23311;48.776;9.162;2022-09-02T03:31:36;10.40;;;4.73;;
291;SDS011;23311;48.776;9.162;2022-09-02T03:34:05;4.80;;;4.50;;
291;SDS011;23311;48.776;9.162;2022-09-02T03:36:34;5.27;;;4.97;;
291;SDS011;23311;48.776;9.162;2022-09-02T03:39:05;5.10;;;4.83;;
291;SDS011;23311;48.776;9.162;2022-09-02T03:41:35;5.03;;;4.73;;
291;SDS011;23311;48.776;9.162;2022-09-02T03:44:03;4.80;;;4.53;;
291;SDS011;23311;48.776;9.162;2022-09-02T03:46:31;5.30;;;5.00;;
291;SDS011;23311;48.776;9.162;2022-09-02T03:49:00;5.27;;;4.97;;
291;SDS011;23311;48.776;9.162;2022-09-02T03:51:28;6.07;;;5.77;;
291;SDS011;23311;48.776;9.162;2022-09-02T03:53:57;6.70;;;6.30;;
291;SDS011;23311;48.776;9.162;2022-09-02T03:56:26;6.10;;;5.80;;
291;SDS011;23311;48.776;9.162;2022-09-02T03:58:54;6.00;;;5.70;;
291;SDS011;23311;48.776;9.162;2022-09-02T04:01:24;6.27;;;5.93;;
291;SDS011;23311;48.776;9.162;2022-09-02T04:03:59;6.63;;;6.23;;
291;SDS011;23311;48.776;9.162;2022-09-02T04:06:28;6.23;;;5.90;;
291;SDS011;23311;48.776;9.162;2022-09-02T04:08:58;6.87;;;6.47;;
291;SDS011;23311;48.776;9.162;2022-09-02T04:11:27;6.53;;;6.13;;
291;SDS011;23311;48.776;9.162;2022-09-02T04:13:55;6.73;;;6.33;;
291;SDS011;23311;48.776;9.162;2022-09-02T04:16:24;6.53;;;6.13;;
291;SDS011;23311;48.776;9.162;2022-09-02T04:18:54;6.10;;;5.80;;
291;SDS011;23311;48.776;9.162;2022-09-02T04:21:23;5.97;;;5.37;;
291;SDS011;23311;48.776;9.162;2022-09-02T04:23:52;5.77;;;5.53;;
291;SDS011;23311;48.776;9.162;2022-09-02T04:26:20;6.13;;;5.83;;
291;SDS011;23311;48.776;9.162;2022-09-02T04:28:50;5.67;;;5.23;;
291;SDS011;23311;48.776;9.162;2022-09-02T04:31:19;4.50;;;4.20;;
291;SDS011;23311;48.776;9.162;2022-09-02T04:33:51;6.00;;;5.20;;
291;SDS011;23311;48.776;9.162;2022-09-02T04:36:19;5.10;;;4.80;;
291;SDS011;23311;48.776;9.162;2022-09-02T04:38:49;5.40;;;5.10;;
291;SDS011;23311;48.776;9.162;2022-09-02T04:41:18;5.30;;;5.00;;
291;SDS011;23311;48.776;9.162;2022-09-02T04:43:48;5.00;;;4.70;;
291;SDS011;23311;48.776;9.162;2022-09-02T04:46:17;6.90;;;5.83;;
291;SDS011;23311;48.776;9.162;2022-09-02T04:49:00;5.23;;;4.93;;
291;SDS011;23311;48.776;9.162;2022-09-02T04:51:28;5.50;;;5.20;;
291;SDS011;23311;48.776;9.162;2022-09-02T04:53:56;6.50;;;6.10;;
291;SDS011;23311;48.776;9.162;2022-09-02T04:56:25;6.23;;;5.90;;
291;SDS011;23311;48.776;9.162;2022-09-02T04:58:54;7.37;;;6.40;;
291;SDS011;23311;48.776;9.162;2022-09-02T05:01:25;6.23;;;5.90;;
291;SDS011;23311;48.776;9.162;2022-09-02T05:03:54;6.70;;;6.30;;
291;SDS011;23311;48.776;9.162;2022-09-02T05:06:23;7.90;;;6.40;;
291;SDS011;23311;48.776;9.162;2022-09-02T05:08:52;7.30;;;6.90;;
291;SDS011;23311;48.776;9.162;2022-09-02T05:11:22;7.73;;;6.43;;
291;SDS011;23311;48.776;9.162;2022-09-02T05:13:54;6.87;;;6.47;;
291;SDS011;23311;48.776;9.162;2022-09-02T05:16:25;9.40;;;6.17;;
291;SDS011;23311;48.776;9.162;2022-09-02T05:18:55;6.07;;;5.77;;
291;SDS011;23311;48.776;9.162;2022-09-02T05:21:24;6.27;;;5.93;;
291;SDS011;23311;48.776;9.162;2022-09-02T05:23:52;6.53;;;5.90;;
291;SDS011;23311;48.776;9.162;2022-09-02T05:26:20;5.93;;;5.63;;
291;SDS011;23311;48.776;9.162;2022-09-02T05:28:49;6.20;;;5.90;;
291;SDS011;23311;48.776;9.162;2022-09-02T05:31:18;7.03;;;6.63;;
291;SDS011;23311;48.776;9.162;2022-09-02T05:33:48;6.03;;;5.73;;
291;SDS011;23311;48.776;9.162;2022-09-02T05:36:17;9.33;;;6.00;;
291;SDS011;23311;48.776;9.162;2022-09-02T05:38:47;6.43;;;6.03;;
291;SDS011;23311;48.776;9.162;2022-09-02T05:41:16;5.60;;;5.30;;
291;SDS011;23311;48.776;9.162;2022-09-02T05:43:48;5.40;;;5.10;;
291;SDS011;23311;48.776;9.162;2022-09-02T05:46:18;6.77;;;6.20;;
291;SDS011;23311;48.776;9.162;2022-09-02T05:48:50;5.40;;;5.03;;
291;SDS011;23311;48.776;9.162;2022-09-02T05:51:39;5.20;;;4.90;;
291;SDS011;23311;48.776;9.162;2022-09-02T05:54:10;6.20;;;5.63;;
291;SDS011;23311;48.776;9.162;2022-09-02T05:56:40;5.37;;;5.07;;
291;SDS011;23311;48.776;9.162;2022-09-02T05:59:10;5.57;;;5.23;;
291;SDS011;23311;48.776;9.162;2022-09-02T06:01:38;5.50;;;5.00;;
291;SDS011;23311;48.776;9.162;2022-09-02T06:04:08;4.90;;;4.60;;
291;SDS011;23311;48.776;9.162;2022-09-02T06:06:36;5.97;;;5.23;;
291;SDS011;23311;48.776;9.162;2022-09-02T06:09:05;5.50;;;5.20;;
291;SDS011;23311;48.776;9.162;2022-09-02T06:11:34;6.60;;;4.60;;
291;SDS011;23311;48.776;9.162;2022-09-02T06:14:05;6.20;;;4.90;;
291;SDS011;23311;48.776;9.162;2022-09-02T06:16:33;5.63;;;5.00;;
291;SDS011;23311;48.776;9.162;2022-09-02T06:19:02;6.43;;;5.27;;
291;SDS011;23311;48.776;9.162;2022-09-02T06:21:34;5.43;;;5.13;;
291;SDS011;23311;48.776;9.162;2022-09-02T06:24:03;6.07;;;4.70;;
291;SDS011;23311;48.776;9.162;2022-09-02T06:26:32;4.63;;;4.33;;
291;SDS011;23311;48.776;9.162;2022-09-02T06:29:01;5.17;;;4.87;;
291;SDS011;23311;48.776;9.162;2022-09-02T06:31:30;5.20;;;4.90;;
291;SDS011;23311;48.776;9.162;2022-09-02T06:34:00;4.83;;;4.53;;
291;SDS011;23311;48.776;9.162;2022-09-02T06:36:29;5.03;;;4.73;;
291;SDS011;23311;48.776;9.162;2022-09-02T06:38:59;6.10;;;5.10;;
291;SDS011;23311;48.776;9.162;2022-09-02T06:41:28;7.20;;;5.03;;
291;SDS011;23311;48.776;9.162;2022-09-02T06:43:59;5.10;;;4.47;;
291;SDS011;23311;48.776;9.162;2022-09-02T06:46:33;8.53;;;5.40;;
291;SDS011;23311;48.776;9.162;2022-09-02T06:49:03;6.00;;;4.70;;
291;SDS011;23311;48.776;9.162;2022-09-02T06:51:34;5.17;;;4.87;;
291;SDS011;23311;48.776;9.162;2022-09-02T06:54:06;4.50;;;4.13;;
291;SDS011;23311;48.776;9.162;2022-09-02T06:56:35;4.73;;;4.43;;
291;SDS011;23311;48.776;9.162;2022-09-02T06:59:04;5.13;;;4.50;;
291;SDS011;23311;48.776;9.162;2022-09-02T07:01:33;6.73;;;4.50;;
291;SDS011;23311;48.776;9.162;2022-09-02T07:04:02;4.73;;;4.43;;
291;SDS011;23311;48.776;9.162;2022-09-02T07:06:49;4.50;;;4.20;;
291;SDS011;23311;48.776;9.162;2022-09-02T07:09:23;6.37;;;4.47;;
291;SDS011;23311;48.776;9.162;2022-09-02T07:11:57;4.47;;;4.20;;
291;SDS011;23311;48.776;9.162;2022-09-02T07:14:30;4.23;;;3.60;;
291;SDS011;23311;48.776;9.162;2022-09-02T07:17:02;4.37;;;4.03;;
291;SDS011;23311;48.776;9.162;2022-09-02T07:19:30;5.93;;;4.10;;
291;SDS011;23311;48.776;9.162;2022-09-02T07:21:58;3.93;;;3.60;;
291;SDS011;23311;48.776;9.162;2022-09-02T07:24:27;3.80;;;2.90;;
291;SDS011;23311;48.776;9.162;2022-09-02T07:26:55;4.20;;;3.20;;
291;SDS011;23311;48.776;9.162;2022-09-02T07:29:23;4.23;;;2.93;;
291;SDS011;23311;48.776;9.162;2022-09-02T07:31:51;3.10;;;2.60;;
291;SDS011;23311;48.776;9.162;2022-09-02T07:34:19;4.53;;;3.50;;
291;SDS011;23311;48.776;9.162;2022-09-02T07:36:47;3.73;;;3.53;;
291;SDS011;23311;48.776;9.162;2022-09-02T07:39:16;3.03;;;2.83;;
291;SDS011;23311;48.776;9.162;2022-09-02T07:41:47;4.90;;;3.27;;
291;SDS011;23311;48.776;9.162;2022-09-02T07:44:17;3.80;;;3.60;;
291;SDS011;23311;48.776;9.162;2022-09-02T07:46:46;3.70;;;3.50;;
291;SDS011;23311;48.776;9.162;2022-09-02T07:49:15;2.53;;;2.33;;
291;SDS011;23311;48.776;9.162;2022-09-02T07:51:49;3.37;;;3.20;;
291;SDS011;23311;48.776;9.162;2022-09-02T07:54:18;3.83;;;2.93;;
291;SDS011;23311;48.776;9.162;2022-09-02T07:56:49;2.50;;;2.30;;
291;SDS011;23311;48.776;9.162;2022-09-02T07:59:18;2.73;;;2.57;;
291;SDS011;23311;48.776;9.162;2022-09-02T08:01:47;2.30;;;2.10;;
291;SDS011;23311;48.776;9.162;2022-09-02T08:04:17;2.43;;;2.23;;
291;SDS011;23311;48.776;9.162;2022-09-02T08:06:46;2.37;;;1.97;;
291;SDS011;23311;48.776;9.162;2022-09-02T08:09:15;3.17;;;2.20;;
291;SDS011;23311;48.776;9.162;2022-09-02T08:11:45;2.57;;;2.03;;
291;SDS011;23311;48.776;9.162;2022-09-02T08:14:18;2.53;;;2.33;;
291;SDS011;23311;48.776;9.162;2022-09-02T08:16:50;2.53;;;2.20;;
291;SDS011;23311;48.776;9.162;2022-09-02T08:19:20;2.30;;;2.00;;
291;SDS011;23311;48.776;9.162;2022-09-02T08:21:49;3.23;;;1.90;;
291;SDS011;23311;48.776;9.162;2022-09-02T08:24:17;2.70;;;2.50;;
291;SDS011;23311;48.776;9.162;2022-09-02T08:26:45;2.97;;;2.30;;
291;SDS011;23311;48.776;9.162;2022-09-02T08:29:13;4.40;;;2.43;;
291;SDS011;23311;48.776;9.162;2022-09-02T08:31:42;1.70;;;1.63;;
291;SDS011;23311;48.776;9.162;2022-09-02T08:34:10;2.63;;;1.73;;
291;SDS011;23311;48.776;9.162;2022-09-02T08:36:38;2.93;;;2.00;;
291;SDS011;23311;48.776;9.162;2022-09-02T08:39:21;2.13;;;1.90;;
291;SDS011;23311;48.776;9.162;2022-09-02T08:41:51;2.23;;;1.80;;
291;SDS011;23311;48.776;9.162;2022-09-02T08:44:27;2.07;;;1.90;;
291;SDS011;23311;48.776;9.162;2022-09-02T08:46:58;2.20;;;2.00;;
291;SDS011;23311;48.776;9.162;2022-09-02T08:49:30;2.97;;;1.77;;
291;SDS011;23311;48.776;9.162;2022-09-02T08:52:02;2.10;;;1.90;;
291;SDS011;23311;48.776;9.162;2022-09-02T08:54:33;1.97;;;1.90;;
291;SDS011;23311;48.776;9.162;2022-09-02T08:57:07;1.70;;;1.60;;
291;SDS011;23311;48.776;9.162;2022-09-02T08:59:36;2.33;;;2.00;;
291;SDS011;23311;48.776;9.162;2022-09-02T09:02:14;1.77;;;1.67;;
291;SDS011;23311;48.776;9.162;2022-09-02T09:04:57;1.83;;;1.73;;
291;SDS011;23311;48.776;9.162;2022-09-02T09:07:44;1.83;;;1.73;;
291;SDS011;23311;48.776;9.162;2022-09-02T09:10:23;4.43;;;1.90;;
291;SDS011;23311;48.776;9.162;2022-09-02T09:13:00;2.30;;;2.00;;
291;SDS011;23311;48.776;9.162;2022-09-02T09:15:42;2.07;;;1.93;;
291;SDS011;23311;48.776;9.162;2022-09-02T09:18:18;3.70;;;1.80;;
291;SDS011;23311;48.776;9.162;2022-09-02T09:20:54;3.10;;;2.23;;
291;SDS011;23311;48.776;9.162;2022-09-02T09:23:26;2.70;;;1.63;;
291;SDS011;23311;48.776;9.162;2022-09-02T09:26:03;1.93;;;1.83;;
291;SDS011;23311;48.776;9.162;2022-09-02T09:28:37;3.50;;;2.10;;
291;SDS011;23311;48.776;9.162;2022-09-02T09:31:11;3.83;;;1.60;;
291;SDS011;23311;48.776;9.162;2022-09-02T09:33:57;2.17;;;2.00;;
291;SDS011;23311;48.776;9.162;2022-09-02T09:36:43;3.50;;;1.70;;
291;SDS011;23311;48.776;9.162;2022-09-02T09:39:18;1.80;;;1.70;;
291;SDS011;23311;48.776;9.162;2022-09-02T09:41:51;2.17;;;1.90;;
291;SDS011;23311;48.776;9.162;2022-09-02T09:44:33;3.03;;;1.73;;
291;SDS011;23311;48.776;9.162;2022-09-02T09:47:04;1.97;;;1.83;;
291;SDS011;23311;48.776;9.162;2022-09-02T09:49:36;6.50;;;2.10;;
291;SDS011;23311;48.776;9.162;2022-09-02T09:52:05;3.77;;;1.57;;
291;SDS011;23311;48.776;9.162;2022-09-02T09:54:33;2.13;;;1.53;;
291;SDS011;23311;48.776;9.162;2022-09-02T09:57:14;1.73;;;1.47;;
291;SDS011;23311;48.776;9.162;2022-09-02T09:59:47;1.83;;;1.77;;
291;SDS011;23311;48.776;9.162;2022-09-02T10:02:21;3.27;;;1.77;;
291;SDS011;23311;48.776;9.162;2022-09-02T10:04:54;2.10;;;1.30;;
291;SDS011;23311;48.776;9.162;2022-09-02T10:07:37;2.23;;;1.73;;
291;SDS011;23311;48.776;9.162;2022-09-02T10:10:13;1.83;;;1.77;;
291;SDS011;23311;48.776;9.162;2022-09-02T10:12:43;2.00;;;1.50;;
291;SDS011;23311;48.776;9.162;2022-09-02T10:15:12;2.10;;;1.70;;
291;SDS011;23311;48.776;9.162;2022-09-02T10:17:42;2.00;;;1.90;;
291;SDS011;23311;48.776;9.162;2022-09-02T10:20:17;1.60;;;1.50;;
291;SDS011;23311;48.776;9.162;2022-09-02T10:23:02;1.73;;;1.33;;
291;SDS011;23311;48.776;9.162;2022-09-02T10:25:41;1.80;;;1.70;;
291;SDS011;23311;48.776;9.162;2022-09-02T10:28:28;2.43;;;1.67;;
291;SDS011;23311;48.776;9.162;2022-09-02T10:31:08;1.63;;;1.50;;
291;SDS011;23311;48.776;9.162;2022-09-02T10:33:45;1.80;;;1.40;;
291;SDS011;23311;48.776;9.162;2022-09-02T10:36:26;1.90;;;1.60;;
291;SDS011;23311;48.776;9.162;2022-09-02T10:39:02;2.73;;;1.43;;
291;SDS011;23311;48.776;9.162;2022-09-02T10:41:39;4.60;;;1.43;;
291;SDS011;23311;48.776;9.162;2022-09-02T10:44:26;2.23;;;1.37;;
291;SDS011;23311;48.776;9.162;2022-09-02T10:46:58;2.07;;;1.17;;
291;SDS011;23311;48.776;9.162;2022-09-02T10:52:26;1.50;;;1.40;;
291;SDS011;23311;48.776;9.162;2022-09-02T10:55:05;1.60;;;1.00;;
291;SDS011;23311;48.776;9.162;2022-09-02T10:57:44;2.10;;;1.20;;
291;SDS011;23311;48.776;9.162;2022-09-02T11:00:17;1.57;;;1.50;;
291;SDS011;23311;48.776;9.162;2022-09-02T11:02:47;2.07;;;1.30;;
291;SDS011;23311;48.776;9.162;2022-09-02T11:05:21;2.20;;;1.77;;
291;SDS011;23311;48.776;9.162;2022-09-02T11:07:54;1.83;;;1.50;;
291;SDS011;23311;48.776;9.162;2022-09-02T11:10:30;2.57;;;1.50;;
291;SDS011;23311;48.776;9.162;2022-09-02T11:13:02;1.27;;;1.23;;
291;SDS011;23311;48.776;9.162;2022-09-02T11:15:38;1.33;;;1.00;;
291;SDS011;23311;48.776;9.162;2022-09-02T11:18:14;2.93;;;1.97;;
291;SDS011;23311;48.776;9.162;2022-09-02T11:20:53;4.93;;;1.67;;
291;SDS011;23311;48.776;9.162;2022-09-02T11:23:30;3.00;;;1.70;;
291;SDS011;23311;48.776;9.162;2022-09-02T11:26:06;2.30;;;1.40;;
291;SDS011;23311;48.776;9.162;2022-09-02T11:28:42;2.40;;;1.57;;
291;SDS011;23311;48.776;9.162;2022-09-02T11:31:18;2.80;;;2.30;;
291;SDS011;23311;48.776;9.162;2022-09-02T11:33:54;2.20;;;2.07;;
291;SDS011;23311;48.776;9.162;2022-09-02T11:36:35;2.30;;;1.10;;
291;SDS011;23311;48.776;9.162;2022-09-02T11:39:07;1.17;;;1.10;;
291;SDS011;23311;48.776;9.162;2022-09-02T11:42:05;1.37;;;1.30;;
291;SDS011;23311;48.776;9.162;2022-09-02T11:44:46;1.73;;;1.60;;
291;SDS011;23311;48.776;9.162;2022-09-02T11:50:40;1.43;;;1.40;;
291;SDS011;23311;48.776;9.162;2022-09-02T11:53:34;1.70;;;1.60;;
291;SDS011;23311;48.776;9.162;2022-09-02T11:56:10;1.80;;;1.60;;
291;SDS011;23311;48.776;9.162;2022-09-02T11:58:42;2.20;;;1.63;;
291;SDS011;23311;48.776;9.162;2022-09-02T12:01:25;1.50;;;1.40;;
291;SDS011;23311;48.776;9.162;2022-09-02T12:03:59;2.17;;;1.80;;
291;SDS011;23311;48.776;9.162;2022-09-02T12:09:55;2.30;;;1.53;;
291;SDS011;23311;48.776;9.162;2022-09-02T12:15:44;3.20;;;1.60;;
291;SDS011;23311;48.776;9.162;2022-09-02T12:21:04;2.67;;;1.30;;
291;SDS011;23311;48.776;9.162;2022-09-02T12:29:34;1.40;;;1.30;;
291;SDS011;23311;48.776;9.162;2022-09-02T12:32:05;1.70;;;1.33;;
291;SDS011;23311;48.776;9.162;2022-09-02T12:34:50;2.33;;;1.70;;
291;SDS011;23311;48.776;9.162;2022-09-02T12:40:29;1.43;;;1.33;;
291;SDS011;23311;48.776;9.162;2022-09-02T12:43:05;3.47;;;1.40;;
291;SDS011;23311;48.776;9.162;2022-09-02T12:45:48;2.87;;;1.60;;
291;SDS011;23311;48.776;9.162;2022-09-02T12:48:17;1.63;;;1.40;;
291;SDS011;23311;48.776;9.162;2022-09-02T12:51:04;1.57;;;1.40;;
291;SDS011;23311;48.776;9.162;2022-09-02T12:53:35;1.63;;;1.53;;
291;SDS011;23311;48.776;9.162;2022-09-02T12:56:18;1.63;;;1.37;;
291;SDS011;23311;48.776;9.162;2022-09-02T12:58:49;1.90;;;1.57;;
291;SDS011;23311;48.776;9.162;2022-09-02T13:01:23;1.67;;;1.57;;
291;SDS011;23311;48.776;9.162;2022-09-02T13:04:12;4.40;;;2.00;;
291;SDS011;23311;48.776;9.162;2022-09-02T13:07:10;1.67;;;1.60;;
291;SDS011;23311;48.776;9.162;2022-09-02T13:10:10;6.63;;;1.87;;
291;SDS011;23311;48.776;9.162;2022-09-02T13:13:08;2.10;;;1.57;;
291;SDS011;23311;48.776;9.162;2022-09-02T13:16:10;1.57;;;1.50;;
291;SDS011;23311;48.776;9.162;2022-09-02T13:22:07;2.07;;;1.60;;
291;SDS011;23311;48.776;9.162;2022-09-02T13:25:03;1.93;;;1.60;;
291;SDS011;23311;48.776;9.162;2022-09-02T13:28:05;1.60;;;1.27;;
291;SDS011;23311;48.776;9.162;2022-09-02T13:31:06;2.03;;;1.30;;
291;SDS011;23311;48.776;9.162;2022-09-02T13:33:41;2.17;;;1.70;;
291;SDS011;23311;48.776;9.162;2022-09-02T13:36:11;2.87;;;1.80;;
291;SDS011;23311;48.776;9.162;2022-09-02T13:38:50;1.73;;;1.67;;
291;SDS011;23311;48.776;9.162;2022-09-02T13:41:27;2.30;;;2.03;;
291;SDS011;23311;48.776;9.162;2022-09-02T13:44:04;1.93;;;1.87;;
291;SDS011;23311;48.776;9.162;2022-09-02T13:46:44;1.77;;;1.67;;
291;SDS011;23311;48.776;9.162;2022-09-02T13:49:18;2.30;;;2.10;;
291;SDS011;23311;48.776;9.162;2022-09-02T13:51:49;3.63;;;2.27;;
291;SDS011;23311;48.776;9.162;2022-09-02T13:54:21;4.40;;;2.13;;
291;SDS011;23311;48.776;9.162;2022-09-02T13:56:56;2.17;;;1.70;;
291;SDS011;23311;48.776;9.162;2022-09-02T13:59:30;2.30;;;1.70;;
291;SDS011;23311;48.776;9.162;2022-09-02T14:02:14;2.13;;;1.47;;
291;SDS011;23311;48.776;9.162;2022-09-02T14:04:48;2.10;;;2.00;;
291;SDS011;23311;48.776;9.162;2022-09-02T14:07:22;1.50;;;1.50;;
291;SDS011;23311;48.776;9.162;2022-09-02T14:09:56;2.73;;;1.83;;
291;SDS011;23311;48.776;9.162;2022-09-02T14:12:28;4.30;;;2.30;;
291;SDS011;23311;48.776;9.162;2022-09-02T14:15:00;2.30;;;2.10;;
291;SDS011;23311;48.776;9.162;2022-09-02T14:17:29;4.17;;;2.40;;
291;SDS011;23311;48.776;9.162;2022-09-02T14:20:07;1.73;;;1.50;;
291;SDS011;23311;48.776;9.162;2022-09-02T14:22:51;3.30;;;2.03;;
291;SDS011;23311;48.776;9.162;2022-09-02T14:25:21;2.70;;;2.13;;
291;SDS011;23311;48.776;9.162;2022-09-02T14:27:53;2.40;;;2.10;;
291;SDS011;23311;48.776;9.162;2022-09-02T14:30:24;1.87;;;1.60;;
291;SDS011;23311;48.776;9.162;2022-09-02T14:33:14;2.57;;;1.60;;
291;SDS011;23311;48.776;9.162;2022-09-02T14:35:53;1.80;;;1.80;;
291;SDS011;23311;48.776;9.162;2022-09-02T14:38:28;2.23;;;1.60;;
291;SDS011;23311;48.776;9.162;2022-09-02T14:40:59;2.00;;;1.57;;
291;SDS011;23311;48.776;9.162;2022-09-02T14:43:31;1.80;;;1.70;;
291;SDS011;23311;48.776;9.162;2022-09-02T14:46:13;1.70;;;1.60;;
291;SDS011;23311;48.776;9.162;2022-09-02T14:48:51;2.00;;;1.77;;
291;SDS011;23311;48.776;9.162;2022-09-02T14:51:26;3.77;;;3.10;;
291;SDS011;23311;48.776;9.162;2022-09-02T14:54:06;1.70;;;1.60;;
291;SDS011;23311;48.776;9.162;2022-09-02T14:56:47;2.30;;;1.67;;
291;SDS011;23311;48.776;9.162;2022-09-02T14:59:17;3.57;;;1.63;;
291;SDS011;23311;48.776;9.162;2022-09-02T15:01:47;2.30;;;1.93;;
291;SDS011;23311;48.776;9.162;2022-09-02T15:04:17;1.90;;;1.53;;
291;SDS011;23311;48.776;9.162;2022-09-02T15:06:45;3.47;;;1.77;;
291;SDS011;23311;48.776;9.162;2022-09-02T15:09:15;2.80;;;1.87;;
291;SDS011;23311;48.776;9.162;2022-09-02T15:11:44;2.00;;;1.90;;
291;SDS011;23311;48.776;9.162;2022-09-02T15:14:16;3.50;;;1.60;;
291;SDS011;23311;48.776;9.162;2022-09-02T15:16:44;3.00;;;1.90;;
291;SDS011;23311;48.776;9.162;2022-09-02T15:19:14;1.83;;;1.67;;
291;SDS011;23311;48.776;9.162;2022-09-02T15:21:42;2.23;;;1.50;;
291;SDS011;23311;48.776;9.162;2022-09-02T15:24:10;1.57;;;1.33;;
291;SDS011;23311;48.776;9.162;2022-09-02T15:26:39;1.63;;;1.60;;
291;SDS011;23311;48.776;9.162;2022-09-02T15:29:07;2.03;;;1.60;;
291;SDS011;23311;48.776;9.162;2022-09-02T15:31:35;2.37;;;1.60;;
291;SDS011;23311;48.776;9.162;2022-09-02T15:34:03;2.83;;;1.67;;
291;SDS011;23311;48.776;9.162;2022-09-02T15:36:31;5.90;;;3.70;;
291;SDS011;23311;48.776;9.162;2022-09-02T15:38:59;2.17;;;2.00;;
291;SDS011;23311;48.776;9.162;2022-09-02T15:41:27;2.53;;;2.10;;
291;SDS011;23311;48.776;9.162;2022-09-02T15:43:58;1.80;;;1.70;;
291;SDS011;23311;48.776;9.162;2022-09-02T15:46:26;3.67;;;1.97;;
291;SDS011;23311;48.776;9.162;2022-09-02T15:49:00;3.53;;;1.73;;
291;SDS011;23311;48.776;9.162;2022-09-02T15:51:30;4.33;;;1.73;;
291;SDS011;23311;48.776;9.162;2022-09-02T15:53:59;2.37;;;2.20;;
291;SDS011;23311;48.776;9.162;2022-09-02T15:56:29;3.00;;;1.63;;
291;SDS011;23311;48.776;9.162;2022-09-02T15:59:00;1.90;;;1.80;;
291;SDS011;23311;48.776;9.162;2022-09-02T16:01:30;2.33;;;1.90;;
291;SDS011;23311;48.776;9.162;2022-09-02T16:04:00;3.70;;;1.93;;
291;SDS011;23311;48.776;9.162;2022-09-02T16:06:28;1.67;;;1.43;;
291;SDS011;23311;48.776;9.162;2022-09-02T16:08:58;2.93;;;1.87;;
291;SDS011;23311;48.776;9.162;2022-09-02T16:11:26;3.40;;;2.10;;
291;SDS011;23311;48.776;9.162;2022-09-02T16:13:54;2.60;;;1.80;;